sensor_id;sensor_type;location;lat;lon;timestamp;temperature;humidity
23637;DHT22;11995;50.842;4.456;2022-07-23T00:01:33;17.70;99.90
23637;DHT22;11995;50.842;4.456;2022-07-23T00:04:00;17.80;99.90
23637;DHT22;11995;50.842;4.456;2022-07-23T00:06:27;17.70;99.90
23637;DHT22;11995;50.842;4.456;2022-07-23T00:08:54;17.70;99.90
23637;DHT22;11995;50.842;4.456;2022-07-23T00:11:20;17.70;99.90
23637;DHT22;11995;50.842;4.456;2022-07-23T00:13:47;17.70;99.90
23637;DHT22;11995;50.842;4.456;2022-07-23T00:16:14;17.80;99.90
23637;DHT22;11995;50.842;4.456;2022-07-23T00:18:41;17.80;99.90
23637;DHT22;11995;50.842;4.456;2022-07-23T00:21:08;17.80;99.90
23637;DHT22;11995;50.842;4.456;2022-07-23T00:23:35;17.90;99.90
23637;DHT22;11995;50.842;4.456;2022-07-23T00:26:02;17.90;99.90
23637;DHT22;11995;50.842;4.456;2022-07-23T00:28:29;17.90;99.90
23637;DHT22;11995;50.842;4.456;2022-07-23T00:30:55;17.80;99.90
23637;DHT22;11995;50.842;4.456;2022-07-23T00:33:22;17.80;99.90
23637;DHT22;11995;50.842;4.456;2022-07-23T00:35:49;17.80;99.90
23637;DHT22;11995;50.842;4.456;2022-07-23T00:38:16;17.80;99.90
23637;DHT22;11995;50.842;4.456;2022-07-23T00:40:43;17.70;99.90
23637;DHT22;11995;50.842;4.456;2022-07-23T00:43:09;17.60;99.90
23637;DHT22;11995;50.842;4.456;2022-07-23T00:45:36;17.60;99.90
23637;DHT22;11995;50.842;4.456;2022-07-23T00:48:03;17.70;99.90
23637;DHT22;11995;50.842;4.456;2022-07-23T00:50:30;17.60;99.90
23637;DHT22;11995;50.842;4.456;2022-07-23T00:52:57;17.60;99.90
23637;DHT22;11995;50.842;4.456;2022-07-23T00:55:24;17.60;99.90
23637;DHT22;11995;50.842;4.456;2022-07-23T00:57:50;17.60;99.90
23637;DHT22;11995;50.842;4.456;2022-07-23T01:00:19;17.60;99.90
23637;DHT22;11995;50.842;4.456;2022-07-23T01:02:46;17.50;99.90
23637;DHT22;11995;50.842;4.456;2022-07-23T01:05:13;17.40;99.90
23637;DHT22;11995;50.842;4.456;2022-07-23T01:07:40;17.40;99.90
23637;DHT22;11995;50.842;4.456;2022-07-23T01:10:07;17.30;99.90
23637;DHT22;11995;50.842;4.456;2022-07-23T01:12:36;17.20;99.90
23637;DHT22;11995;50.842;4.456;2022-07-23T01:15:02;17.30;99.90
23637;DHT22;11995;50.842;4.456;2022-07-23T01:17:29;17.30;99.90
23637;DHT22;11995;50.842;4.456;2022-07-23T01:19:56;17.20;99.90
23637;DHT22;11995;50.842;4.456;2022-07-23T01:24:50;17.20;99.90
23637;DHT22;11995;50.842;4.456;2022-07-23T01:27:17;17.10;99.90
23637;DHT22;11995;50.842;4.456;2022-07-23T01:29:45;17.20;99.90
23637;DHT22;11995;50.842;4.456;2022-07-23T01:32:12;17.10;99.90
23637;DHT22;11995;50.842;4.456;2022-07-23T01:34:39;17.10;99.90
23637;DHT22;11995;50.842;4.456;2022-07-23T01:37:06;17.10;99.90
23637;DHT22;11995;50.842;4.456;2022-07-23T01:39:33;17.10;99.90
23637;DHT22;11995;50.842;4.456;2022-07-23T01:42:00;17.10;99.90
23637;DHT22;11995;50.842;4.456;2022-07-23T01:44:27;17.30;99.90
23637;DHT22;11995;50.842;4.456;2022-07-23T01:46:54;17.30;99.90
23637;DHT22;11995;50.842;4.456;2022-07-23T01:49:21;17.20;99.90
23637;DHT22;11995;50.842;4.456;2022-07-23T01:51:48;17.30;99.90
23637;DHT22;11995;50.842;4.456;2022-07-23T01:54:28;17.20;99.90
23637;DHT22;11995;50.842;4.456;2022-07-23T01:56:55;17.20;99.90
23637;DHT22;11995;50.842;4.456;2022-07-23T01:59:22;17.10;99.90
23637;DHT22;11995;50.842;4.456;2022-07-23T02:01:49;17.10;99.90
23637;DHT22;11995;50.842;4.456;2022-07-23T02:04:19;17.00;99.90
23637;DHT22;11995;50.842;4.456;2022-07-23T02:06:46;17.00;99.90
23637;DHT22;11995;50.842;4.456;2022-07-23T02:09:14;17.10;99.90
23637;DHT22;11995;50.842;4.456;2022-07-23T02:11:41;16.90;99.90
23637;DHT22;11995;50.842;4.456;2022-07-23T02:14:08;16.90;99.90
23637;DHT22;11995;50.842;4.456;2022-07-23T02:16:35;16.90;99.90
23637;DHT22;11995;50.842;4.456;2022-07-23T02:19:02;16.80;99.90
23637;DHT22;11995;50.842;4.456;2022-07-23T02:21:29;16.80;99.90
23637;DHT22;11995;50.842;4.456;2022-07-23T02:23:56;16.70;99.90
23637;DHT22;11995;50.842;4.456;2022-07-23T02:26:23;16.70;99.90
23637;DHT22;11995;50.842;4.456;2022-07-23T02:28:50;16.50;99.90
23637;DHT22;11995;50.842;4.456;2022-07-23T02:31:19;16.50;99.90
23637;DHT22;11995;50.842;4.456;2022-07-23T02:33:45;16.50;99.90
23637;DHT22;11995;50.842;4.456;2022-07-23T02:36:12;16.40;99.90
23637;DHT22;11995;50.842;4.456;2022-07-23T02:38:39;16.50;99.90
23637;DHT22;11995;50.842;4.456;2022-07-23T02:41:06;16.50;99.90
23637;DHT22;11995;50.842;4.456;2022-07-23T02:43:32;16.40;99.90
23637;DHT22;11995;50.842;4.456;2022-07-23T02:45:59;16.50;99.90
23637;DHT22;11995;50.842;4.456;2022-07-23T02:48:26;16.40;99.90
23637;DHT22;11995;50.842;4.456;2022-07-23T02:50:53;16.40;99.90
23637;DHT22;11995;50.842;4.456;2022-07-23T02:53:22;16.30;99.90
23637;DHT22;11995;50.842;4.456;2022-07-23T02:55:49;16.20;99.90
23637;DHT22;11995;50.842;4.456;2022-07-23T02:58:16;16.10;99.90
23637;DHT22;11995;50.842;4.456;2022-07-23T03:00:43;16.10;99.90
23637;DHT22;11995;50.842;4.456;2022-07-23T03:03:09;16.10;99.90
23637;DHT22;11995;50.842;4.456;2022-07-23T03:05:37;16.00;99.90
23637;DHT22;11995;50.842;4.456;2022-07-23T03:08:04;16.00;99.90
23637;DHT22;11995;50.842;4.456;2022-07-23T03:10:31;16.00;99.90
23637;DHT22;11995;50.842;4.456;2022-07-23T03:12:57;16.10;99.90
23637;DHT22;11995;50.842;4.456;2022-07-23T03:15:24;16.10;99.90
23637;DHT22;11995;50.842;4.456;2022-07-23T03:17:51;16.10;99.90
23637;DHT22;11995;50.842;4.456;2022-07-23T03:20:18;16.10;99.90
23637;DHT22;11995;50.842;4.456;2022-07-23T03:22:45;16.20;99.90
23637;DHT22;11995;50.842;4.456;2022-07-23T03:25:11;16.20;99.90
23637;DHT22;11995;50.842;4.456;2022-07-23T03:27:38;16.10;99.90
23637;DHT22;11995;50.842;4.456;2022-07-23T03:30:05;16.00;99.90
23637;DHT22;11995;50.842;4.456;2022-07-23T03:32:32;16.10;99.90
23637;DHT22;11995;50.842;4.456;2022-07-23T03:34:59;16.10;99.90
23637;DHT22;11995;50.842;4.456;2022-07-23T03:37:26;16.00;99.90
23637;DHT22;11995;50.842;4.456;2022-07-23T03:39:53;16.00;99.90
23637;DHT22;11995;50.842;4.456;2022-07-23T03:42:20;16.00;99.90
23637;DHT22;11995;50.842;4.456;2022-07-23T03:44:46;15.90;99.90
23637;DHT22;11995;50.842;4.456;2022-07-23T03:47:13;15.90;99.90
23637;DHT22;11995;50.842;4.456;2022-07-23T03:49:41;15.90;99.90
23637;DHT22;11995;50.842;4.456;2022-07-23T03:52:08;15.80;99.90
23637;DHT22;11995;50.842;4.456;2022-07-23T03:54:35;15.80;99.90
23637;DHT22;11995;50.842;4.456;2022-07-23T03:57:02;15.90;99.90
23637;DHT22;11995;50.842;4.456;2022-07-23T03:59:29;15.80;99.90
23637;DHT22;11995;50.842;4.456;2022-07-23T04:01:55;15.80;99.90
23637;DHT22;11995;50.842;4.456;2022-07-23T04:04:22;15.80;99.90
23637;DHT22;11995;50.842;4.456;2022-07-23T04:06:49;15.90;99.90
23637;DHT22;11995;50.842;4.456;2022-07-23T04:09:16;16.00;99.90
23637;DHT22;11995;50.842;4.456;2022-07-23T04:11:43;16.00;99.90
23637;DHT22;11995;50.842;4.456;2022-07-23T04:14:09;16.00;99.90
23637;DHT22;11995;50.842;4.456;2022-07-23T04:16:36;16.10;99.90
23637;DHT22;11995;50.842;4.456;2022-07-23T04:19:03;16.10;99.90
23637;DHT22;11995;50.842;4.456;2022-07-23T04:21:30;16.10;99.90
23637;DHT22;11995;50.842;4.456;2022-07-23T04:23:57;16.20;99.90
23637;DHT22;11995;50.842;4.456;2022-07-23T04:26:24;16.20;99.90
23637;DHT22;11995;50.842;4.456;2022-07-23T04:28:50;16.10;99.90
23637;DHT22;11995;50.842;4.456;2022-07-23T04:31:17;16.20;99.90
23637;DHT22;11995;50.842;4.456;2022-07-23T04:33:44;16.20;99.90
23637;DHT22;11995;50.842;4.456;2022-07-23T04:36:11;16.30;99.90
23637;DHT22;11995;50.842;4.456;2022-07-23T04:38:38;16.30;99.90
23637;DHT22;11995;50.842;4.456;2022-07-23T04:41:04;16.40;99.90
23637;DHT22;11995;50.842;4.456;2022-07-23T04:43:32;16.40;99.90
23637;DHT22;11995;50.842;4.456;2022-07-23T04:45:59;16.40;99.90
23637;DHT22;11995;50.842;4.456;2022-07-23T04:48:26;16.50;99.90
23637;DHT22;11995;50.842;4.456;2022-07-23T04:50:52;16.50;99.90
23637;DHT22;11995;50.842;4.456;2022-07-23T04:53:19;16.60;99.90
23637;DHT22;11995;50.842;4.456;2022-07-23T04:55:46;16.60;99.90
23637;DHT22;11995;50.842;4.456;2022-07-23T04:58:13;16.70;99.90
23637;DHT22;11995;50.842;4.456;2022-07-23T05:00:40;16.70;99.90
23637;DHT22;11995;50.842;4.456;2022-07-23T05:03:06;16.70;99.90
23637;DHT22;11995;50.842;4.456;2022-07-23T05:05:33;16.80;99.90
23637;DHT22;11995;50.842;4.456;2022-07-23T05:08:01;16.90;99.90
23637;DHT22;11995;50.842;4.456;2022-07-23T05:10:28;17.00;99.90
23637;DHT22;11995;50.842;4.456;2022-07-23T05:12:55;17.10;99.90
23637;DHT22;11995;50.842;4.456;2022-07-23T05:15:22;17.20;99.90
23637;DHT22;11995;50.842;4.456;2022-07-23T05:17:49;17.30;99.90
23637;DHT22;11995;50.842;4.456;2022-07-23T05:20:15;17.40;99.90
23637;DHT22;11995;50.842;4.456;2022-07-23T05:22:42;17.50;99.90
23637;DHT22;11995;50.842;4.456;2022-07-23T05:25:09;17.70;99.90
23637;DHT22;11995;50.842;4.456;2022-07-23T05:27:36;17.70;99.90
23637;DHT22;11995;50.842;4.456;2022-07-23T05:30:03;17.80;99.90
23637;DHT22;11995;50.842;4.456;2022-07-23T05:32:31;18.00;99.90
23637;DHT22;11995;50.842;4.456;2022-07-23T05:34:58;18.00;99.90
23637;DHT22;11995;50.842;4.456;2022-07-23T05:37:24;18.10;99.90
23637;DHT22;11995;50.842;4.456;2022-07-23T05:39:51;18.20;99.90
23637;DHT22;11995;50.842;4.456;2022-07-23T05:42:18;18.10;99.90
23637;DHT22;11995;50.842;4.456;2022-07-23T05:44:45;18.00;99.90
23637;DHT22;11995;50.842;4.456;2022-07-23T05:47:12;17.80;99.90
23637;DHT22;11995;50.842;4.456;2022-07-23T05:49:38;17.60;99.90
23637;DHT22;11995;50.842;4.456;2022-07-23T05:52:06;17.60;99.90
23637;DHT22;11995;50.842;4.456;2022-07-23T05:54:36;17.70;99.90
23637;DHT22;11995;50.842;4.456;2022-07-23T05:57:03;17.90;99.90
23637;DHT22;11995;50.842;4.456;2022-07-23T05:59:30;18.00;99.90
23637;DHT22;11995;50.842;4.456;2022-07-23T06:01:57;18.10;99.90
23637;DHT22;11995;50.842;4.456;2022-07-23T06:04:24;18.20;99.90
23637;DHT22;11995;50.842;4.456;2022-07-23T06:06:51;18.30;99.90
23637;DHT22;11995;50.842;4.456;2022-07-23T06:09:18;18.10;99.90
23637;DHT22;11995;50.842;4.456;2022-07-23T06:11:44;18.30;99.90
23637;DHT22;11995;50.842;4.456;2022-07-23T06:14:11;18.40;99.90
23637;DHT22;11995;50.842;4.456;2022-07-23T06:16:38;18.50;99.90
23637;DHT22;11995;50.842;4.456;2022-07-23T06:19:05;18.40;99.90
23637;DHT22;11995;50.842;4.456;2022-07-23T06:21:31;18.60;99.90
23637;DHT22;11995;50.842;4.456;2022-07-23T06:23:58;18.70;99.90
23637;DHT22;11995;50.842;4.456;2022-07-23T06:26:25;18.80;99.90
23637;DHT22;11995;50.842;4.456;2022-07-23T06:28:52;18.80;99.90
23637;DHT22;11995;50.842;4.456;2022-07-23T06:31:19;18.90;99.90
23637;DHT22;11995;50.842;4.456;2022-07-23T06:33:45;18.80;99.90
23637;DHT22;11995;50.842;4.456;2022-07-23T06:36:12;18.70;99.90
23637;DHT22;11995;50.842;4.456;2022-07-23T06:38:39;18.70;99.90
23637;DHT22;11995;50.842;4.456;2022-07-23T06:41:06;18.80;99.90
23637;DHT22;11995;50.842;4.456;2022-07-23T06:43:33;19.00;99.90
23637;DHT22;11995;50.842;4.456;2022-07-23T06:45:59;19.50;99.90
23637;DHT22;11995;50.842;4.456;2022-07-23T06:48:26;19.90;99.90
23637;DHT22;11995;50.842;4.456;2022-07-23T06:50:54;20.10;99.90
23637;DHT22;11995;50.842;4.456;2022-07-23T06:53:21;20.10;99.90
23637;DHT22;11995;50.842;4.456;2022-07-23T06:55:48;20.30;99.90
23637;DHT22;11995;50.842;4.456;2022-07-23T06:58:15;20.20;99.90
23637;DHT22;11995;50.842;4.456;2022-07-23T07:00:42;20.40;99.90
23637;DHT22;11995;50.842;4.456;2022-07-23T07:03:08;20.60;99.90
23637;DHT22;11995;50.842;4.456;2022-07-23T07:05:35;20.80;99.90
23637;DHT22;11995;50.842;4.456;2022-07-23T07:08:02;21.20;99.90
23637;DHT22;11995;50.842;4.456;2022-07-23T07:10:29;21.30;99.90
23637;DHT22;11995;50.842;4.456;2022-07-23T07:12:56;21.80;99.90
23637;DHT22;11995;50.842;4.456;2022-07-23T07:15:23;21.70;99.90
23637;DHT22;11995;50.842;4.456;2022-07-23T07:17:49;21.60;99.90
23637;DHT22;11995;50.842;4.456;2022-07-23T07:20:16;21.50;99.90
23637;DHT22;11995;50.842;4.456;2022-07-23T07:22:43;21.30;99.90
23637;DHT22;11995;50.842;4.456;2022-07-23T07:25:10;21.40;99.90
23637;DHT22;11995;50.842;4.456;2022-07-23T07:27:37;21.70;99.90
23637;DHT22;11995;50.842;4.456;2022-07-23T07:30:04;21.80;99.90
23637;DHT22;11995;50.842;4.456;2022-07-23T07:32:31;21.90;99.90
23637;DHT22;11995;50.842;4.456;2022-07-23T07:35:03;22.30;99.90
23637;DHT22;11995;50.842;4.456;2022-07-23T07:37:30;22.20;99.90
23637;DHT22;11995;50.842;4.456;2022-07-23T07:39:57;22.30;99.90
23637;DHT22;11995;50.842;4.456;2022-07-23T07:42:23;21.90;99.90
23637;DHT22;11995;50.842;4.456;2022-07-23T07:44:50;21.60;99.90
23637;DHT22;11995;50.842;4.456;2022-07-23T07:47:17;21.50;99.90
23637;DHT22;11995;50.842;4.456;2022-07-23T07:49:44;21.20;99.90
23637;DHT22;11995;50.842;4.456;2022-07-23T07:52:11;21.30;99.90
23637;DHT22;11995;50.842;4.456;2022-07-23T07:54:38;21.20;99.90
23637;DHT22;11995;50.842;4.456;2022-07-23T07:57:04;21.30;99.90
23637;DHT22;11995;50.842;4.456;2022-07-23T07:59:31;21.20;99.90
23637;DHT22;11995;50.842;4.456;2022-07-23T08:01:58;21.30;99.90
23637;DHT22;11995;50.842;4.456;2022-07-23T08:04:25;21.50;99.90
23637;DHT22;11995;50.842;4.456;2022-07-23T08:06:52;21.30;99.90
23637;DHT22;11995;50.842;4.456;2022-07-23T08:09:18;21.30;99.90
23637;DHT22;11995;50.842;4.456;2022-07-23T08:11:45;21.40;99.90
23637;DHT22;11995;50.842;4.456;2022-07-23T08:14:12;21.50;99.90
23637;DHT22;11995;50.842;4.456;2022-07-23T08:16:39;21.40;99.90
23637;DHT22;11995;50.842;4.456;2022-07-23T08:19:06;21.70;99.90
23637;DHT22;11995;50.842;4.456;2022-07-23T08:21:32;21.70;99.90
23637;DHT22;11995;50.842;4.456;2022-07-23T08:24:00;21.70;99.90
23637;DHT22;11995;50.842;4.456;2022-07-23T08:26:27;21.70;99.90
23637;DHT22;11995;50.842;4.456;2022-07-23T08:28:54;21.60;99.90
23637;DHT22;11995;50.842;4.456;2022-07-23T08:31:21;21.60;99.90
23637;DHT22;11995;50.842;4.456;2022-07-23T08:33:47;21.80;99.90
23637;DHT22;11995;50.842;4.456;2022-07-23T08:36:14;21.90;99.90
23637;DHT22;11995;50.842;4.456;2022-07-23T08:38:41;22.20;99.90
23637;DHT22;11995;50.842;4.456;2022-07-23T08:41:09;22.40;99.90
23637;DHT22;11995;50.842;4.456;2022-07-23T08:43:35;22.50;99.90
23637;DHT22;11995;50.842;4.456;2022-07-23T08:46:03;22.80;99.90
23637;DHT22;11995;50.842;4.456;2022-07-23T08:48:30;22.90;99.90
23637;DHT22;11995;50.842;4.456;2022-07-23T08:50:59;23.00;99.90
23637;DHT22;11995;50.842;4.456;2022-07-23T08:53:26;22.90;99.90
23637;DHT22;11995;50.842;4.456;2022-07-23T08:55:55;23.10;99.90
23637;DHT22;11995;50.842;4.456;2022-07-23T08:58:22;22.90;99.90
23637;DHT22;11995;50.842;4.456;2022-07-23T09:00:49;22.60;99.90
23637;DHT22;11995;50.842;4.456;2022-07-23T09:03:17;22.40;99.90
23637;DHT22;11995;50.842;4.456;2022-07-23T09:05:45;22.60;99.90
23637;DHT22;11995;50.842;4.456;2022-07-23T09:08:13;22.60;99.90
23637;DHT22;11995;50.842;4.456;2022-07-23T09:13:28;22.70;99.90
23637;DHT22;11995;50.842;4.456;2022-07-23T09:15:56;22.70;99.90
23637;DHT22;11995;50.842;4.456;2022-07-23T09:18:30;22.60;99.90
23637;DHT22;11995;50.842;4.456;2022-07-23T09:21:10;22.60;99.90
23637;DHT22;11995;50.842;4.456;2022-07-23T09:23:45;22.70;99.90
23637;DHT22;11995;50.842;4.456;2022-07-23T09:26:23;22.70;99.90
23637;DHT22;11995;50.842;4.456;2022-07-23T09:29:16;22.70;99.90
23637;DHT22;11995;50.842;4.456;2022-07-23T09:31:14;22.90;99.90
23637;DHT22;11995;50.842;4.456;2022-07-23T09:33:41;23.10;99.90
23637;DHT22;11995;50.842;4.456;2022-07-23T09:36:08;23.30;99.90
23637;DHT22;11995;50.842;4.456;2022-07-23T09:38:36;23.30;99.90
23637;DHT22;11995;50.842;4.456;2022-07-23T09:41:07;23.20;99.90
23637;DHT22;11995;50.842;4.456;2022-07-23T09:43:34;23.30;99.90
23637;DHT22;11995;50.842;4.456;2022-07-23T09:46:20;23.60;99.90
23637;DHT22;11995;50.842;4.456;2022-07-23T09:48:49;23.80;99.90
23637;DHT22;11995;50.842;4.456;2022-07-23T09:51:17;23.70;99.90
23637;DHT22;11995;50.842;4.456;2022-07-23T09:53:48;23.90;99.90
23637;DHT22;11995;50.842;4.456;2022-07-23T09:56:15;23.80;99.90
23637;DHT22;11995;50.842;4.456;2022-07-23T09:58:42;23.30;99.90
23637;DHT22;11995;50.842;4.456;2022-07-23T10:01:15;23.40;99.90
23637;DHT22;11995;50.842;4.456;2022-07-23T10:03:42;23.50;99.90
23637;DHT22;11995;50.842;4.456;2022-07-23T10:06:09;23.60;99.90
23637;DHT22;11995;50.842;4.456;2022-07-23T10:08:37;24.00;99.90
23637;DHT22;11995;50.842;4.456;2022-07-23T10:11:04;24.20;99.90
23637;DHT22;11995;50.842;4.456;2022-07-23T10:13:32;24.20;99.90
23637;DHT22;11995;50.842;4.456;2022-07-23T10:16:16;24.20;99.90
23637;DHT22;11995;50.842;4.456;2022-07-23T10:18:43;24.50;99.90
23637;DHT22;11995;50.842;4.456;2022-07-23T10:21:10;24.30;99.60
23637;DHT22;11995;50.842;4.456;2022-07-23T10:23:40;24.20;99.80
23637;DHT22;11995;50.842;4.456;2022-07-23T10:26:08;24.20;99.90
23637;DHT22;11995;50.842;4.456;2022-07-23T10:31:26;24.20;99.70
23637;DHT22;11995;50.842;4.456;2022-07-23T10:33:53;24.10;99.10
23637;DHT22;11995;50.842;4.456;2022-07-23T10:36:27;24.30;99.40
23637;DHT22;11995;50.842;4.456;2022-07-23T10:38:58;24.10;97.90
23637;DHT22;11995;50.842;4.456;2022-07-23T10:41:33;24.30;96.80
23637;DHT22;11995;50.842;4.456;2022-07-23T10:44:14;24.20;97.30
23637;DHT22;11995;50.842;4.456;2022-07-23T10:47:02;24.40;98.10
23637;DHT22;11995;50.842;4.456;2022-07-23T10:49:26;24.50;99.00
23637;DHT22;11995;50.842;4.456;2022-07-23T10:54:38;24.30;99.40
23637;DHT22;11995;50.842;4.456;2022-07-23T10:57:06;24.00;98.70
23637;DHT22;11995;50.842;4.456;2022-07-23T11:02:22;24.40;98.00
23637;DHT22;11995;50.842;4.456;2022-07-23T11:04:50;24.60;96.10
23637;DHT22;11995;50.842;4.456;2022-07-23T11:07:17;24.70;95.80
23637;DHT22;11995;50.842;4.456;2022-07-23T11:09:44;24.60;96.40
23637;DHT22;11995;50.842;4.456;2022-07-23T11:17:28;24.40;95.90
23637;DHT22;11995;50.842;4.456;2022-07-23T11:25:12;24.50;96.70
23637;DHT22;11995;50.842;4.456;2022-07-23T11:27:39;24.90;96.80
23637;DHT22;11995;50.842;4.456;2022-07-23T11:30:07;24.90;96.60
23637;DHT22;11995;50.842;4.456;2022-07-23T11:32:38;25.10;97.00
23637;DHT22;11995;50.842;4.456;2022-07-23T11:35:22;24.80;96.70
23637;DHT22;11995;50.842;4.456;2022-07-23T11:37:49;24.30;96.70
23637;DHT22;11995;50.842;4.456;2022-07-23T11:40:19;24.20;97.30
23637;DHT22;11995;50.842;4.456;2022-07-23T11:42:53;24.30;96.90
23637;DHT22;11995;50.842;4.456;2022-07-23T11:45:17;24.50;97.10
23637;DHT22;11995;50.842;4.456;2022-07-23T11:47:44;25.10;96.30
23637;DHT22;11995;50.842;4.456;2022-07-23T11:50:11;25.20;95.50
23637;DHT22;11995;50.842;4.456;2022-07-23T11:52:38;25.20;95.40
23637;DHT22;11995;50.842;4.456;2022-07-23T11:55:06;25.00;95.80
23637;DHT22;11995;50.842;4.456;2022-07-23T11:57:35;25.00;96.10
23637;DHT22;11995;50.842;4.456;2022-07-23T12:00:11;24.80;96.30
23637;DHT22;11995;50.842;4.456;2022-07-23T12:02:35;24.80;96.60
23637;DHT22;11995;50.842;4.456;2022-07-23T12:05:01;25.00;97.20
23637;DHT22;11995;50.842;4.456;2022-07-23T12:07:32;25.00;96.10
23637;DHT22;11995;50.842;4.456;2022-07-23T12:10:04;25.20;95.70
23637;DHT22;11995;50.842;4.456;2022-07-23T12:12:28;25.60;95.40
23637;DHT22;11995;50.842;4.456;2022-07-23T12:14:57;25.50;94.80
23637;DHT22;11995;50.842;4.456;2022-07-23T12:17:28;25.40;95.50
23637;DHT22;11995;50.842;4.456;2022-07-23T12:19:57;25.20;95.20
23637;DHT22;11995;50.842;4.456;2022-07-23T12:22:24;25.30;94.40
23637;DHT22;11995;50.842;4.456;2022-07-23T12:24:52;25.20;95.00
23637;DHT22;11995;50.842;4.456;2022-07-23T12:27:20;25.00;95.50
23637;DHT22;11995;50.842;4.456;2022-07-23T12:29:48;25.00;95.90
23637;DHT22;11995;50.842;4.456;2022-07-23T12:32:21;25.20;95.30
23637;DHT22;11995;50.842;4.456;2022-07-23T12:34:49;25.50;95.50
23637;DHT22;11995;50.842;4.456;2022-07-23T12:37:26;25.80;94.60
23637;DHT22;11995;50.842;4.456;2022-07-23T12:39:53;26.00;94.60
23637;DHT22;11995;50.842;4.456;2022-07-23T12:42:20;26.00;94.40
23637;DHT22;11995;50.842;4.456;2022-07-23T12:45:10;26.20;93.80
23637;DHT22;11995;50.842;4.456;2022-07-23T12:50:39;26.20;94.00
23637;DHT22;11995;50.842;4.456;2022-07-23T12:53:18;26.20;93.90
23637;DHT22;11995;50.842;4.456;2022-07-23T12:55:41;26.30;93.80
23637;DHT22;11995;50.842;4.456;2022-07-23T12:58:09;26.40;93.50
23637;DHT22;11995;50.842;4.456;2022-07-23T13:03:29;26.50;94.30
23637;DHT22;11995;50.842;4.456;2022-07-23T13:05:57;26.70;93.60
23637;DHT22;11995;50.842;4.456;2022-07-23T13:08:24;26.70;93.00
23637;DHT22;11995;50.842;4.456;2022-07-23T13:10:52;26.80;93.20
23637;DHT22;11995;50.842;4.456;2022-07-23T13:13:22;27.00;93.00
23637;DHT22;11995;50.842;4.456;2022-07-23T13:15:50;27.00;93.00
23637;DHT22;11995;50.842;4.456;2022-07-23T13:18:17;27.00;92.40
23637;DHT22;11995;50.842;4.456;2022-07-23T13:20:45;27.30;91.90
23637;DHT22;11995;50.842;4.456;2022-07-23T13:23:13;27.10;92.10
23637;DHT22;11995;50.842;4.456;2022-07-23T13:25:40;27.00;92.60
23637;DHT22;11995;50.842;4.456;2022-07-23T13:28:07;26.90;93.00
23637;DHT22;11995;50.842;4.456;2022-07-23T13:30:34;27.00;92.70
23637;DHT22;11995;50.842;4.456;2022-07-23T13:33:02;27.00;91.90
23637;DHT22;11995;50.842;4.456;2022-07-23T13:35:30;27.00;92.10
23637;DHT22;11995;50.842;4.456;2022-07-23T13:37:56;26.80;91.60
23637;DHT22;11995;50.842;4.456;2022-07-23T13:40:23;26.60;92.20
23637;DHT22;11995;50.842;4.456;2022-07-23T13:42:50;26.70;92.10
23637;DHT22;11995;50.842;4.456;2022-07-23T13:45:17;26.80;91.80
23637;DHT22;11995;50.842;4.456;2022-07-23T13:47:44;26.70;92.80
23637;DHT22;11995;50.842;4.456;2022-07-23T13:50:11;26.90;92.30
23637;DHT22;11995;50.842;4.456;2022-07-23T13:52:37;27.10;92.20
23637;DHT22;11995;50.842;4.456;2022-07-23T13:55:05;27.30;91.40
23637;DHT22;11995;50.842;4.456;2022-07-23T13:57:32;27.20;91.20
23637;DHT22;11995;50.842;4.456;2022-07-23T13:59:59;27.20;91.30
23637;DHT22;11995;50.842;4.456;2022-07-23T14:02:25;27.00;90.90
23637;DHT22;11995;50.842;4.456;2022-07-23T14:04:52;27.00;91.30
23637;DHT22;11995;50.842;4.456;2022-07-23T14:07:19;27.10;90.50
23637;DHT22;11995;50.842;4.456;2022-07-23T14:09:46;26.90;91.00
23637;DHT22;11995;50.842;4.456;2022-07-23T14:12:13;26.60;91.10
23637;DHT22;11995;50.842;4.456;2022-07-23T14:14:40;26.40;91.40
23637;DHT22;11995;50.842;4.456;2022-07-23T14:17:08;26.20;91.50
23637;DHT22;11995;50.842;4.456;2022-07-23T14:19:35;26.20;91.90
23637;DHT22;11995;50.842;4.456;2022-07-23T14:22:02;26.30;91.80
23637;DHT22;11995;50.842;4.456;2022-07-23T14:24:29;26.10;91.80
23637;DHT22;11995;50.842;4.456;2022-07-23T14:26:56;26.30;91.40
23637;DHT22;11995;50.842;4.456;2022-07-23T14:29:23;26.60;91.20
23637;DHT22;11995;50.842;4.456;2022-07-23T14:31:50;26.70;90.90
23637;DHT22;11995;50.842;4.456;2022-07-23T14:34:16;26.70;90.70
23637;DHT22;11995;50.842;4.456;2022-07-23T14:36:43;26.60;91.10
23637;DHT22;11995;50.842;4.456;2022-07-23T14:39:10;26.70;91.80
23637;DHT22;11995;50.842;4.456;2022-07-23T14:41:38;26.70;91.30
23637;DHT22;11995;50.842;4.456;2022-07-23T14:44:05;26.70;91.00
23637;DHT22;11995;50.842;4.456;2022-07-23T14:46:32;26.70;91.20
23637;DHT22;11995;50.842;4.456;2022-07-23T14:48:59;26.90;90.90
23637;DHT22;11995;50.842;4.456;2022-07-23T14:51:26;26.70;90.50
23637;DHT22;11995;50.842;4.456;2022-07-23T14:53:53;26.80;90.50
23637;DHT22;11995;50.842;4.456;2022-07-23T14:56:20;26.70;90.90
23637;DHT22;11995;50.842;4.456;2022-07-23T14:58:47;26.60;91.20
23637;DHT22;11995;50.842;4.456;2022-07-23T15:01:14;26.70;91.70
23637;DHT22;11995;50.842;4.456;2022-07-23T15:03:40;26.80;90.70
23637;DHT22;11995;50.842;4.456;2022-07-23T15:06:07;27.00;90.70
23637;DHT22;11995;50.842;4.456;2022-07-23T15:08:34;27.00;90.30
23637;DHT22;11995;50.842;4.456;2022-07-23T15:11:01;27.10;90.10
23637;DHT22;11995;50.842;4.456;2022-07-23T15:13:28;27.30;90.20
23637;DHT22;11995;50.842;4.456;2022-07-23T15:15:54;27.30;89.50
23637;DHT22;11995;50.842;4.456;2022-07-23T15:18:21;27.30;90.10
23637;DHT22;11995;50.842;4.456;2022-07-23T15:20:48;27.20;90.20
23637;DHT22;11995;50.842;4.456;2022-07-23T15:23:15;27.00;90.10
23637;DHT22;11995;50.842;4.456;2022-07-23T15:25:42;27.10;90.50
23637;DHT22;11995;50.842;4.456;2022-07-23T15:28:08;27.10;90.10
23637;DHT22;11995;50.842;4.456;2022-07-23T15:30:35;27.00;90.10
23637;DHT22;11995;50.842;4.456;2022-07-23T15:33:02;27.20;90.00
23637;DHT22;11995;50.842;4.456;2022-07-23T15:35:30;27.00;89.60
23637;DHT22;11995;50.842;4.456;2022-07-23T15:37:57;26.90;89.80
23637;DHT22;11995;50.842;4.456;2022-07-23T15:40:24;27.20;89.90
23637;DHT22;11995;50.842;4.456;2022-07-23T15:42:51;27.40;90.00
23637;DHT22;11995;50.842;4.456;2022-07-23T15:45:18;27.20;90.00
23637;DHT22;11995;50.842;4.456;2022-07-23T15:47:46;27.10;90.10
23637;DHT22;11995;50.842;4.456;2022-07-23T15:50:13;27.10;90.10
23637;DHT22;11995;50.842;4.456;2022-07-23T15:52:40;27.10;90.10
23637;DHT22;11995;50.842;4.456;2022-07-23T15:55:07;27.10;90.40
23637;DHT22;11995;50.842;4.456;2022-07-23T15:57:34;27.00;90.20
23637;DHT22;11995;50.842;4.456;2022-07-23T16:00:02;27.00;90.20
23637;DHT22;11995;50.842;4.456;2022-07-23T16:02:29;27.30;90.00